Terminal Aerodrome Forecast
Issued by NWS

Home | Current Version | Previous Version | Text Only | Print | Product List | Glossary On
Versions: 1 2 3 4 5 6 7 8 9 10 11 12 13 14 15 16
670
FTUS43 KGRB 010520
TAFAUW
TAF
KAUW 010520Z 0106/0206 09012G20KT 6SM -SHRA OVC006
      TEMPO 0106/0108 3SM +TSRA OVC004CB
     FM011200 06007KT 5SM -SHRA OVC006
     FM011400 10006KT 5SM -SHRA OVC007
     FM011900 18010G15KT 5SM -SHRA BR OVC012
     FM012300 24007KT 5SM -SHRA BR OVC009
     FM020300 29010KT P6SM OVC010=

USA.gov is the U.S. government's official web portal to all federal, state and local government web resources and services.